sensor_id;sensor_type;location;lat;lon;timestamp;pressure;altitude;pressure_sealevel;temperature;humidity
23619;BME280;18207;32.078;34.818;2022-08-19T00:01:42;99969.84;;;32.67;45.84
23619;BME280;18207;32.078;34.818;2022-08-19T00:04:24;99956.06;;;32.65;45.38
23619;BME280;18207;32.078;34.818;2022-08-19T00:06:56;99952.84;;;32.63;45.34
23619;BME280;18207;32.078;34.818;2022-08-19T00:09:27;99959.75;;;32.62;46.01
23619;BME280;18207;32.078;34.818;2022-08-19T00:11:59;99954.97;;;32.59;45.90
23619;BME280;18207;32.078;34.818;2022-08-19T00:14:32;99961.91;;;32.58;45.95
23619;BME280;18207;32.078;34.818;2022-08-19T00:17:03;99959.88;;;32.55;46.02
23619;BME280;18207;32.078;34.818;2022-08-19T00:19:35;99972.94;;;32.53;45.90
23619;BME280;18207;32.078;34.818;2022-08-19T00:22:06;99968.13;;;32.50;45.99
23619;BME280;18207;32.078;34.818;2022-08-19T00:24:37;99968.97;;;32.47;45.59
23619;BME280;18207;32.078;34.818;2022-08-19T00:27:17;99970.66;;;32.44;45.75
23619;BME280;18207;32.078;34.818;2022-08-19T00:29:55;99964.59;;;32.42;46.07
23619;BME280;18207;32.078;34.818;2022-08-19T00:32:27;99971.97;;;32.40;45.64
23619;BME280;18207;32.078;34.818;2022-08-19T00:34:58;99964.25;;;32.40;45.71
23619;BME280;18207;32.078;34.818;2022-08-19T00:37:29;99961.81;;;32.39;46.26
23619;BME280;18207;32.078;34.818;2022-08-19T00:40:03;99963.88;;;32.38;46.43
23619;BME280;18207;32.078;34.818;2022-08-19T00:42:34;99968.75;;;32.38;45.84
23619;BME280;18207;32.078;34.818;2022-08-19T00:45:12;99962.28;;;32.37;45.80
23619;BME280;18207;32.078;34.818;2022-08-19T00:47:45;99960.66;;;32.36;46.29
23619;BME280;18207;32.078;34.818;2022-08-19T00:50:20;99960.28;;;32.34;46.36
23619;BME280;18207;32.078;34.818;2022-08-19T00:52:52;99959.91;;;32.32;46.14
23619;BME280;18207;32.078;34.818;2022-08-19T00:55:26;99963.97;;;32.31;45.86
23619;BME280;18207;32.078;34.818;2022-08-19T00:58:03;99951.03;;;32.30;45.82
23619;BME280;18207;32.078;34.818;2022-08-19T01:00:38;99968.50;;;32.29;46.31
23619;BME280;18207;32.078;34.818;2022-08-19T01:03:13;99957.56;;;32.27;45.87
23619;BME280;18207;32.078;34.818;2022-08-19T01:05:47;99955.97;;;32.26;46.25
23619;BME280;18207;32.078;34.818;2022-08-19T01:08:20;99960.84;;;32.26;46.14
23619;BME280;18207;32.078;34.818;2022-08-19T01:10:57;99965.28;;;32.27;46.59
23619;BME280;18207;32.078;34.818;2022-08-19T01:13:33;99963.28;;;32.27;46.12
23619;BME280;18207;32.078;34.818;2022-08-19T01:16:22;99961.66;;;32.26;46.27
23619;BME280;18207;32.078;34.818;2022-08-19T01:18:55;99958.81;;;32.26;46.12
23619;BME280;18207;32.078;34.818;2022-08-19T01:21:32;99961.66;;;32.26;46.28
23619;BME280;18207;32.078;34.818;2022-08-19T01:24:06;99967.78;;;32.25;46.54
23619;BME280;18207;32.078;34.818;2022-08-19T01:26:42;99962.13;;;32.22;46.20
23619;BME280;18207;32.078;34.818;2022-08-19T01:29:14;99962.59;;;32.20;46.04
23619;BME280;18207;32.078;34.818;2022-08-19T01:31:47;99958.13;;;32.19;46.53
23619;BME280;18207;32.078;34.818;2022-08-19T01:34:20;99960.19;;;32.19;46.08
23619;BME280;18207;32.078;34.818;2022-08-19T01:36:51;99951.28;;;32.17;46.42
23619;BME280;18207;32.078;34.818;2022-08-19T01:39:26;99965.13;;;32.15;46.08
23619;BME280;18207;32.078;34.818;2022-08-19T01:41:57;99965.56;;;32.13;46.55
23619;BME280;18207;32.078;34.818;2022-08-19T01:44:31;99965.97;;;32.12;46.15
23619;BME280;18207;32.078;34.818;2022-08-19T01:47:04;99965.19;;;32.11;46.54
23619;BME280;18207;32.078;34.818;2022-08-19T01:49:35;99961.56;;;32.11;46.29
23619;BME280;18207;32.078;34.818;2022-08-19T01:52:07;99965.19;;;32.11;46.61
23619;BME280;18207;32.078;34.818;2022-08-19T01:54:40;99968.03;;;32.11;46.20
23619;BME280;18207;32.078;34.818;2022-08-19T01:57:14;99961.19;;;32.09;46.26
23619;BME280;18207;32.078;34.818;2022-08-19T01:59:45;99964.44;;;32.07;46.29
23619;BME280;18207;32.078;34.818;2022-08-19T02:02:17;99965.66;;;32.06;46.38
23619;BME280;18207;32.078;34.818;2022-08-19T02:04:47;99971.34;;;32.06;46.86
23619;BME280;18207;32.078;34.818;2022-08-19T02:07:20;99970.97;;;32.04;46.51
23619;BME280;18207;32.078;34.818;2022-08-19T02:09:52;99972.22;;;32.03;46.47
23619;BME280;18207;32.078;34.818;2022-08-19T02:12:23;99970.59;;;32.02;46.76
23619;BME280;18207;32.078;34.818;2022-08-19T02:14:54;99962.50;;;32.01;46.46
23619;BME280;18207;32.078;34.818;2022-08-19T02:17:25;99966.59;;;32.00;46.29
23619;BME280;18207;32.078;34.818;2022-08-19T02:19:56;99968.59;;;31.99;46.45
23619;BME280;18207;32.078;34.818;2022-08-19T02:22:28;99973.88;;;32.01;46.97
23619;BME280;18207;32.078;34.818;2022-08-19T02:25:01;99977.13;;;31.99;46.77
23619;BME280;18207;32.078;34.818;2022-08-19T02:27:33;99975.97;;;31.97;46.99
23619;BME280;18207;32.078;34.818;2022-08-19T02:30:08;99969.53;;;31.93;46.29
23619;BME280;18207;32.078;34.818;2022-08-19T02:32:41;99970.81;;;31.88;46.72
23619;BME280;18207;32.078;34.818;2022-08-19T02:35:13;99974.53;;;31.85;47.01
23619;BME280;18207;32.078;34.818;2022-08-19T02:37:45;99983.47;;;31.84;46.78
23619;BME280;18207;32.078;34.818;2022-08-19T02:40:34;99971.38;;;31.80;47.11
23619;BME280;18207;32.078;34.818;2022-08-19T02:43:07;99977.47;;;31.78;46.36
23619;BME280;18207;32.078;34.818;2022-08-19T02:45:39;99985.66;;;31.76;46.39
23619;BME280;18207;32.078;34.818;2022-08-19T02:48:09;99982.44;;;31.74;46.46
23619;BME280;18207;32.078;34.818;2022-08-19T02:50:51;99982.84;;;31.73;46.62
23619;BME280;18207;32.078;34.818;2022-08-19T02:53:26;99979.22;;;31.72;46.54
23619;BME280;18207;32.078;34.818;2022-08-19T02:55:58;99988.97;;;31.71;46.58
23619;BME280;18207;32.078;34.818;2022-08-19T02:58:29;99989.78;;;31.72;46.46
23619;BME280;18207;32.078;34.818;2022-08-19T03:01:00;99989.78;;;31.72;46.43
23619;BME280;18207;32.078;34.818;2022-08-19T03:03:31;99994.22;;;31.73;46.54
23619;BME280;18207;32.078;34.818;2022-08-19T03:06:13;99992.97;;;31.74;46.84
23619;BME280;18207;32.078;34.818;2022-08-19T03:08:47;99993.44;;;31.72;46.41
23619;BME280;18207;32.078;34.818;2022-08-19T03:11:23;99995.47;;;31.72;46.51
23619;BME280;18207;32.078;34.818;2022-08-19T03:13:54;99995.47;;;31.72;47.18
23619;BME280;18207;32.078;34.818;2022-08-19T03:16:28;100004.00;;;31.72;46.91
23619;BME280;18207;32.078;34.818;2022-08-19T03:19:01;100001.94;;;31.72;46.74
23619;BME280;18207;32.078;34.818;2022-08-19T03:21:34;100004.78;;;31.72;47.08
23619;BME280;18207;32.078;34.818;2022-08-19T03:24:08;99999.09;;;31.72;46.63
23619;BME280;18207;32.078;34.818;2022-08-19T03:26:53;100006.41;;;31.73;47.20
23619;BME280;18207;32.078;34.818;2022-08-19T03:29:28;99995.47;;;31.72;46.79
23619;BME280;18207;32.078;34.818;2022-08-19T03:32:00;99999.09;;;31.72;46.88
23619;BME280;18207;32.078;34.818;2022-08-19T03:34:34;100001.16;;;31.72;47.11
23619;BME280;18207;32.078;34.818;2022-08-19T03:37:09;99995.47;;;31.72;46.75
23619;BME280;18207;32.078;34.818;2022-08-19T03:39:41;99997.50;;;31.71;47.02
23619;BME280;18207;32.078;34.818;2022-08-19T03:42:14;99993.88;;;31.71;46.79
23619;BME280;18207;32.078;34.818;2022-08-19T03:45:06;100001.19;;;31.68;46.96
23619;BME280;18207;32.078;34.818;2022-08-19T03:47:38;100001.63;;;31.67;46.91
23619;BME280;18207;32.078;34.818;2022-08-19T03:50:09;99999.22;;;31.65;47.11
23619;BME280;18207;32.078;34.818;2022-08-19T03:52:40;100004.09;;;31.65;47.43
23619;BME280;18207;32.078;34.818;2022-08-19T03:55:14;100000.44;;;31.64;46.68
23619;BME280;18207;32.078;34.818;2022-08-19T03:57:46;100003.69;;;31.63;47.20
23619;BME280;18207;32.078;34.818;2022-08-19T04:00:17;100008.59;;;31.62;47.00
23619;BME280;18207;32.078;34.818;2022-08-19T04:02:48;100007.81;;;31.62;47.23
23619;BME280;18207;32.078;34.818;2022-08-19T04:05:27;100014.28;;;31.62;46.88
23619;BME280;18207;32.078;34.818;2022-08-19T04:07:59;100015.06;;;31.63;47.12
23619;BME280;18207;32.078;34.818;2022-08-19T04:10:29;100014.66;;;31.64;47.05
23619;BME280;18207;32.078;34.818;2022-08-19T04:13:01;100020.34;;;31.64;46.89
23619;BME280;18207;32.078;34.818;2022-08-19T04:15:33;100019.53;;;31.64;47.33
23619;BME280;18207;32.078;34.818;2022-08-19T04:18:08;100014.28;;;31.62;47.36
23619;BME280;18207;32.078;34.818;2022-08-19T04:20:42;100014.66;;;31.64;47.08
23619;BME280;18207;32.078;34.818;2022-08-19T04:23:13;100019.91;;;31.66;47.33
23619;BME280;18207;32.078;34.818;2022-08-19T04:25:45;100016.63;;;31.67;46.93
23619;BME280;18207;32.078;34.818;2022-08-19T04:28:17;100017.00;;;31.69;47.28
23619;BME280;18207;32.078;34.818;2022-08-19T04:30:52;100025.91;;;31.71;47.51
23619;BME280;18207;32.078;34.818;2022-08-19T04:33:24;100031.16;;;31.73;47.29
23619;BME280;18207;32.078;34.818;2022-08-19T04:35:55;100025.44;;;31.76;47.32
23619;BME280;18207;32.078;34.818;2022-08-19T04:38:28;100034.31;;;31.78;47.50
23619;BME280;18207;32.078;34.818;2022-08-19T04:40:59;100031.06;;;31.80;47.61
23619;BME280;18207;32.078;34.818;2022-08-19T04:43:48;100040.41;;;31.80;47.33
23619;BME280;18207;32.078;34.818;2022-08-19T04:46:19;100040.78;;;31.82;47.51
23619;BME280;18207;32.078;34.818;2022-08-19T04:49:08;100049.69;;;31.84;47.13
23619;BME280;18207;32.078;34.818;2022-08-19T04:51:43;100041.88;;;31.88;46.93
23619;BME280;18207;32.078;34.818;2022-08-19T04:54:15;100051.19;;;31.92;47.00
23619;BME280;18207;32.078;34.818;2022-08-19T04:57:07;100048.72;;;31.94;47.53
23619;BME280;18207;32.078;34.818;2022-08-19T04:59:40;100046.19;;;32.00;47.23
23619;BME280;18207;32.078;34.818;2022-08-19T05:02:12;100048.97;;;32.03;47.23
23619;BME280;18207;32.078;34.818;2022-08-19T05:04:43;100038.38;;;32.07;47.14
23619;BME280;18207;32.078;34.818;2022-08-19T05:07:14;100046.03;;;32.10;47.14
23619;BME280;18207;32.078;34.818;2022-08-19T05:09:45;100051.25;;;32.15;47.03
23619;BME280;18207;32.078;34.818;2022-08-19T05:12:25;100054.84;;;32.19;47.26
23619;BME280;18207;32.078;34.818;2022-08-19T05:14:59;100058.44;;;32.23;47.47
23619;BME280;18207;32.078;34.818;2022-08-19T05:17:30;100048.22;;;32.25;47.07
23619;BME280;18207;32.078;34.818;2022-08-19T05:20:07;100046.94;;;32.30;46.96
23619;BME280;18207;32.078;34.818;2022-08-19T05:22:55;100056.22;;;32.34;47.00
23619;BME280;18207;32.078;34.818;2022-08-19T05:25:26;100044.78;;;32.37;47.52
23619;BME280;18207;32.078;34.818;2022-08-19T05:27:57;100052.00;;;32.42;46.97
23619;BME280;18207;32.078;34.818;2022-08-19T05:30:29;100052.31;;;32.47;47.20
23619;BME280;18207;32.078;34.818;2022-08-19T05:33:14;100047.34;;;32.51;47.18
23619;BME280;18207;32.078;34.818;2022-08-19T05:35:44;100048.47;;;32.57;47.13
23619;BME280;18207;32.078;34.818;2022-08-19T05:38:17;100053.28;;;32.64;46.97
23619;BME280;18207;32.078;34.818;2022-08-19T05:40:48;100050.75;;;32.69;47.21
23619;BME280;18207;32.078;34.818;2022-08-19T05:43:19;100057.97;;;32.74;47.46
23619;BME280;18207;32.078;34.818;2022-08-19T05:45:52;100057.91;;;32.77;47.41
23619;BME280;18207;32.078;34.818;2022-08-19T05:48:22;100056.59;;;32.82;47.03
23619;BME280;18207;32.078;34.818;2022-08-19T05:50:52;100060.53;;;32.88;47.47
23619;BME280;18207;32.078;34.818;2022-08-19T05:53:23;100061.66;;;32.94;47.02
23619;BME280;18207;32.078;34.818;2022-08-19T05:55:54;100056.25;;;32.99;47.37
23619;BME280;18207;32.078;34.818;2022-08-19T05:58:25;100059.75;;;33.07;47.04
23619;BME280;18207;32.078;34.818;2022-08-19T06:00:59;100062.50;;;33.14;47.25
23619;BME280;18207;32.078;34.818;2022-08-19T06:03:33;100059.91;;;33.19;47.04
23619;BME280;18207;32.078;34.818;2022-08-19T06:06:06;100058.97;;;33.25;46.95
23619;BME280;18207;32.078;34.818;2022-08-19T06:08:39;100059.28;;;33.31;47.34
23619;BME280;18207;32.078;34.818;2022-08-19T06:11:18;100061.16;;;33.37;47.07
23619;BME280;18207;32.078;34.818;2022-08-19T06:13:52;100067.94;;;33.43;46.98
23619;BME280;18207;32.078;34.818;2022-08-19T06:16:29;100072.78;;;33.46;47.68
23619;BME280;18207;32.078;34.818;2022-08-19T06:19:08;100067.81;;;33.50;47.37
23619;BME280;18207;32.078;34.818;2022-08-19T06:21:42;100074.69;;;33.53;46.76
23619;BME280;18207;32.078;34.818;2022-08-19T06:24:19;100068.91;;;33.56;46.97
23619;BME280;18207;32.078;34.818;2022-08-19T06:26:53;100068.06;;;33.59;47.27
23619;BME280;18207;32.078;34.818;2022-08-19T06:29:29;100073.22;;;33.64;47.46
23619;BME280;18207;32.078;34.818;2022-08-19T06:32:04;100069.88;;;33.69;47.29
23619;BME280;18207;32.078;34.818;2022-08-19T06:34:35;100069.00;;;33.72;47.21
23619;BME280;18207;32.078;34.818;2022-08-19T06:37:06;100064.81;;;33.77;47.35
23619;BME280;18207;32.078;34.818;2022-08-19T06:39:40;100077.66;;;33.85;47.28
23619;BME280;18207;32.078;34.818;2022-08-19T06:42:12;100063.69;;;33.90;46.98
23619;BME280;18207;32.078;34.818;2022-08-19T06:44:47;100068.06;;;33.95;46.96
23619;BME280;18207;32.078;34.818;2022-08-19T06:47:23;100066.72;;;33.99;47.17
23619;BME280;18207;32.078;34.818;2022-08-19T06:49:56;100061.72;;;34.03;47.11
23619;BME280;18207;32.078;34.818;2022-08-19T06:52:34;100064.88;;;34.08;46.70
23619;BME280;18207;32.078;34.818;2022-08-19T06:55:06;100062.31;;;34.14;46.40
23619;BME280;18207;32.078;34.818;2022-08-19T06:57:37;100064.28;;;34.17;47.03
23619;BME280;18207;32.078;34.818;2022-08-19T07:00:09;100050.38;;;34.19;46.36
23619;BME280;18207;32.078;34.818;2022-08-19T07:02:44;100056.34;;;34.24;46.51
23619;BME280;18207;32.078;34.818;2022-08-19T07:05:22;100061.97;;;34.28;46.87
23619;BME280;18207;32.078;34.818;2022-08-19T07:07:53;100064.28;;;34.33;46.23
23619;BME280;18207;32.078;34.818;2022-08-19T07:10:31;100060.06;;;34.37;46.78
23619;BME280;18207;32.078;34.818;2022-08-19T07:13:03;100060.34;;;34.43;46.39
23619;BME280;18207;32.078;34.818;2022-08-19T07:15:36;100068.38;;;34.48;46.54
23619;BME280;18207;32.078;34.818;2022-08-19T07:18:09;100057.66;;;34.52;46.06
23619;BME280;18207;32.078;34.818;2022-08-19T07:20:40;100059.63;;;34.55;46.12
23619;BME280;18207;32.078;34.818;2022-08-19T07:23:12;100062.88;;;34.57;46.06
23619;BME280;18207;32.078;34.818;2022-08-19T07:25:43;100057.94;;;34.57;46.09
23619;BME280;18207;32.078;34.818;2022-08-19T07:28:19;100051.81;;;34.59;46.00
23619;BME280;18207;32.078;34.818;2022-08-19T07:30:52;100055.03;;;34.61;45.71
23619;BME280;18207;32.078;34.818;2022-08-19T07:33:24;100057.78;;;34.64;45.91
23619;BME280;18207;32.078;34.818;2022-08-19T07:35:56;100054.47;;;34.66;45.58
23619;BME280;18207;32.078;34.818;2022-08-19T07:38:27;100057.69;;;34.68;45.78
23619;BME280;18207;32.078;34.818;2022-08-19T07:40:58;100058.06;;;34.70;45.56
23619;BME280;18207;32.078;34.818;2022-08-19T07:43:29;100056.78;;;34.71;46.07
23619;BME280;18207;32.078;34.818;2022-08-19T07:46:02;100058.75;;;34.74;45.44
23619;BME280;18207;32.078;34.818;2022-08-19T07:48:35;100058.22;;;34.79;45.56
23619;BME280;18207;32.078;34.818;2022-08-19T07:51:09;100057.28;;;34.82;45.37
23619;BME280;18207;32.078;34.818;2022-08-19T07:53:55;100057.66;;;34.84;45.89
23619;BME280;18207;32.078;34.818;2022-08-19T07:56:27;100053.91;;;34.87;45.71
23619;BME280;18207;32.078;34.818;2022-08-19T07:58:58;100048.53;;;34.89;45.28
23619;BME280;18207;32.078;34.818;2022-08-19T08:01:29;100052.09;;;34.92;45.75
23619;BME280;18207;32.078;34.818;2022-08-19T08:04:11;100056.03;;;34.98;45.75
23619;BME280;18207;32.078;34.818;2022-08-19T08:06:58;100055.09;;;35.01;45.86
23619;BME280;18207;32.078;34.818;2022-08-19T08:09:47;100050.50;;;35.07;45.38
23619;BME280;18207;32.078;34.818;2022-08-19T08:12:20;100045.81;;;35.13;45.32
23619;BME280;18207;32.078;34.818;2022-08-19T08:15:07;100059.88;;;35.20;45.33
23619;BME280;18207;32.078;34.818;2022-08-19T08:17:39;100060.94;;;35.26;45.42
23619;BME280;18207;32.078;34.818;2022-08-19T08:20:20;100053.88;;;35.31;44.88
23619;BME280;18207;32.078;34.818;2022-08-19T08:22:52;100056.63;;;35.34;45.08
23619;BME280;18207;32.078;34.818;2022-08-19T08:25:39;100047.16;;;35.37;45.42
23619;BME280;18207;32.078;34.818;2022-08-19T08:28:10;100050.25;;;35.43;45.69
23619;BME280;18207;32.078;34.818;2022-08-19T08:30:50;100050.03;;;35.50;45.33
23619;BME280;18207;32.078;34.818;2022-08-19T08:33:26;100047.44;;;35.55;45.66
23619;BME280;18207;32.078;34.818;2022-08-19T08:36:05;100041.97;;;35.61;45.03
23619;BME280;18207;32.078;34.818;2022-08-19T08:38:36;100039.34;;;35.66;45.62
23619;BME280;18207;32.078;34.818;2022-08-19T08:41:19;100037.50;;;35.72;44.94
23619;BME280;18207;32.078;34.818;2022-08-19T08:43:56;100040.25;;;35.76;45.33
23619;BME280;18207;32.078;34.818;2022-08-19T08:46:36;100036.03;;;35.80;45.25
23619;BME280;18207;32.078;34.818;2022-08-19T08:49:26;100030.19;;;35.83;44.87
23619;BME280;18207;32.078;34.818;2022-08-19T08:52:07;100030.53;;;35.85;45.43
23619;BME280;18207;32.078;34.818;2022-08-19T08:54:47;100032.84;;;35.90;44.83
23619;BME280;18207;32.078;34.818;2022-08-19T08:57:29;100030.22;;;35.96;45.25
23619;BME280;18207;32.078;34.818;2022-08-19T09:00:12;100012.47;;;36.01;44.61
23619;BME280;18207;32.078;34.818;2022-08-19T09:02:45;100021.75;;;36.05;45.15
23619;BME280;18207;32.078;34.818;2022-08-19T09:05:18;100010.53;;;36.10;45.11
23619;BME280;18207;32.078;34.818;2022-08-19T09:08:02;100020.59;;;36.15;45.10
23619;BME280;18207;32.078;34.818;2022-08-19T09:10:40;100018.41;;;36.19;44.79
23619;BME280;18207;32.078;34.818;2022-08-19T09:13:25;100026.44;;;36.24;44.65
23619;BME280;18207;32.078;34.818;2022-08-19T09:16:09;100023.44;;;36.27;44.31
23619;BME280;18207;32.078;34.818;2022-08-19T09:18:44;100016.00;;;36.30;44.38
23619;BME280;18207;32.078;34.818;2022-08-19T09:21:17;100018.72;;;36.33;44.31
23619;BME280;18207;32.078;34.818;2022-08-19T09:23:59;100011.63;;;36.38;44.71
23619;BME280;18207;32.078;34.818;2022-08-19T09:26:31;100026.75;;;36.38;44.19
23619;BME280;18207;32.078;34.818;2022-08-19T09:29:20;100013.22;;;36.39;44.75
23619;BME280;18207;32.078;34.818;2022-08-19T09:31:51;100025.84;;;36.41;44.31
23619;BME280;18207;32.078;34.818;2022-08-19T09:34:22;100016.78;;;36.43;44.90
23619;BME280;18207;32.078;34.818;2022-08-19T09:36:54;100013.09;;;36.42;44.43
23619;BME280;18207;32.078;34.818;2022-08-19T09:39:28;100017.16;;;36.45;44.32
23619;BME280;18207;32.078;34.818;2022-08-19T09:42:03;100021.63;;;36.46;44.71
23619;BME280;18207;32.078;34.818;2022-08-19T09:44:46;100031.34;;;36.48;44.36
23619;BME280;18207;32.078;34.818;2022-08-19T09:47:17;100032.81;;;36.53;44.77
23619;BME280;18207;32.078;34.818;2022-08-19T09:49:49;100024.91;;;36.57;44.20
23619;BME280;18207;32.078;34.818;2022-08-19T09:52:22;100032.56;;;36.60;44.03
23619;BME280;18207;32.078;34.818;2022-08-19T09:55:01;100032.00;;;36.65;44.39
23619;BME280;18207;32.078;34.818;2022-08-19T09:57:35;100030.72;;;36.66;43.87
23619;BME280;18207;32.078;34.818;2022-08-19T10:00:09;100022.78;;;36.70;44.57
23619;BME280;18207;32.078;34.818;2022-08-19T10:02:40;100019.94;;;36.70;44.20
23619;BME280;18207;32.078;34.818;2022-08-19T10:05:12;100024.75;;;36.73;44.18
23619;BME280;18207;32.078;34.818;2022-08-19T10:07:59;100031.72;;;36.72;44.00
23619;BME280;18207;32.078;34.818;2022-08-19T10:10:42;100016.94;;;36.73;43.76
23619;BME280;18207;32.078;34.818;2022-08-19T10:13:15;100010.28;;;36.76;44.34
23619;BME280;18207;32.078;34.818;2022-08-19T10:15:49;100021.28;;;36.77;43.63
23619;BME280;18207;32.078;34.818;2022-08-19T10:18:24;100015.09;;;36.79;44.01
23619;BME280;18207;32.078;34.818;2022-08-19T10:21:06;100016.22;;;36.81;44.14
23619;BME280;18207;32.078;34.818;2022-08-19T10:23:40;100008.41;;;36.82;43.85
23619;BME280;18207;32.078;34.818;2022-08-19T10:26:20;100017.34;;;36.84;43.42
23619;BME280;18207;32.078;34.818;2022-08-19T10:28:54;100011.97;;;36.86;43.70
23619;BME280;18207;32.078;34.818;2022-08-19T10:31:28;100009.44;;;36.88;43.44
23619;BME280;18207;32.078;34.818;2022-08-19T10:34:19;100007.50;;;36.85;43.26
23619;BME280;18207;32.078;34.818;2022-08-19T10:36:56;100003.38;;;36.86;43.51
23619;BME280;18207;32.078;34.818;2022-08-19T10:39:30;100003.72;;;36.88;43.45
23619;BME280;18207;32.078;34.818;2022-08-19T10:42:11;100009.44;;;36.88;43.42
23619;BME280;18207;32.078;34.818;2022-08-19T10:44:44;100005.34;;;36.89;43.60
23619;BME280;18207;32.078;34.818;2022-08-19T10:47:18;100008.22;;;36.89;43.09
23619;BME280;18207;32.078;34.818;2022-08-19T10:49:54;100009.81;;;36.90;43.17
23619;BME280;18207;32.078;34.818;2022-08-19T10:52:45;100010.69;;;36.87;43.47
23619;BME280;18207;32.078;34.818;2022-08-19T10:55:20;100012.75;;;36.86;43.58
23619;BME280;18207;32.078;34.818;2022-08-19T10:58:17;100012.44;;;36.84;43.42
23619;BME280;18207;32.078;34.818;2022-08-19T11:00:57;100014.50;;;36.84;43.13
23619;BME280;18207;32.078;34.818;2022-08-19T11:03:28;100009.22;;;36.82;43.49
23619;BME280;18207;32.078;34.818;2022-08-19T11:06:01;100008.75;;;36.84;43.30
23619;BME280;18207;32.078;34.818;2022-08-19T11:08:32;100002.25;;;36.83;42.87
23619;BME280;18207;32.078;34.818;2022-08-19T11:11:05;100011.63;;;36.84;42.94
23619;BME280;18207;32.078;34.818;2022-08-19T11:13:40;100012.88;;;36.83;42.85
23619;BME280;18207;32.078;34.818;2022-08-19T11:16:13;100016.22;;;36.81;43.40
23619;BME280;18207;32.078;34.818;2022-08-19T11:18:47;100020.34;;;36.80;43.40
23619;BME280;18207;32.078;34.818;2022-08-19T11:21:23;100020.81;;;36.79;42.76
23619;BME280;18207;32.078;34.818;2022-08-19T11:24:00;100012.22;;;36.79;43.35
23619;BME280;18207;32.078;34.818;2022-08-19T11:26:32;100004.91;;;36.78;42.92
23619;BME280;18207;32.078;34.818;2022-08-19T11:29:07;100006.94;;;36.77;42.83
23619;BME280;18207;32.078;34.818;2022-08-19T11:31:42;100009.03;;;36.77;42.88
23619;BME280;18207;32.078;34.818;2022-08-19T11:34:17;100013.50;;;36.78;43.24
23619;BME280;18207;32.078;34.818;2022-08-19T11:36:50;100018.88;;;36.76;43.32
23619;BME280;18207;32.078;34.818;2022-08-19T11:39:22;100007.91;;;36.75;43.17
23619;BME280;18207;32.078;34.818;2022-08-19T11:41:53;100010.41;;;36.73;42.90
23619;BME280;18207;32.078;34.818;2022-08-19T11:44:26;100010.41;;;36.73;42.98
23619;BME280;18207;32.078;34.818;2022-08-19T11:47:04;100005.16;;;36.71;43.38
23619;BME280;18207;32.078;34.818;2022-08-19T11:49:36;99997.50;;;36.68;43.63
23619;BME280;18207;32.078;34.818;2022-08-19T11:52:06;100004.13;;;36.65;43.15
23619;BME280;18207;32.078;34.818;2022-08-19T11:54:37;100001.75;;;36.64;43.50
23619;BME280;18207;32.078;34.818;2022-08-19T11:57:08;100001.88;;;36.60;43.77
23619;BME280;18207;32.078;34.818;2022-08-19T11:59:41;99993.72;;;36.59;43.67
23619;BME280;18207;32.078;34.818;2022-08-19T12:02:12;100010.13;;;36.58;43.52
23619;BME280;18207;32.078;34.818;2022-08-19T12:04:42;99991.81;;;36.56;43.22
23619;BME280;18207;32.078;34.818;2022-08-19T12:07:12;99999.13;;;36.57;43.58
23619;BME280;18207;32.078;34.818;2022-08-19T12:09:43;99986.09;;;36.56;43.35
23619;BME280;18207;32.078;34.818;2022-08-19T12:12:15;99991.81;;;36.56;43.12
23619;BME280;18207;32.078;34.818;2022-08-19T12:14:48;99996.72;;;36.55;43.26
23619;BME280;18207;32.078;34.818;2022-08-19T12:17:25;99994.34;;;36.54;43.71
23619;BME280;18207;32.078;34.818;2022-08-19T12:19:56;99993.19;;;36.51;43.00
23619;BME280;18207;32.078;34.818;2022-08-19T12:22:27;100005.09;;;36.50;43.29
23619;BME280;18207;32.078;34.818;2022-08-19T12:24:58;99998.59;;;36.49;43.14
23619;BME280;18207;32.078;34.818;2022-08-19T12:27:29;100000.75;;;36.45;43.25
23619;BME280;18207;32.078;34.818;2022-08-19T12:30:13;100000.84;;;36.42;43.11
23619;BME280;18207;32.078;34.818;2022-08-19T12:32:44;100001.78;;;36.39;43.21
23619;BME280;18207;32.078;34.818;2022-08-19T12:35:15;99993.19;;;36.39;43.45
23619;BME280;18207;32.078;34.818;2022-08-19T12:37:49;99998.13;;;36.38;43.67
23619;BME280;18207;32.078;34.818;2022-08-19T12:40:24;100001.09;;;36.35;43.71
23619;BME280;18207;32.078;34.818;2022-08-19T12:42:54;100006.16;;;36.31;43.76
23619;BME280;18207;32.078;34.818;2022-08-19T12:45:28;99999.28;;;36.28;43.67
23619;BME280;18207;32.078;34.818;2022-08-19T12:48:01;99988.31;;;36.27;43.25
23619;BME280;18207;32.078;34.818;2022-08-19T12:50:53;99997.34;;;36.25;43.26
23619;BME280;18207;32.078;34.818;2022-08-19T12:53:24;99999.41;;;36.25;43.33
23619;BME280;18207;32.078;34.818;2022-08-19T12:55:58;99997.00;;;36.23;42.93
23619;BME280;18207;32.078;34.818;2022-08-19T12:58:30;99998.28;;;36.22;43.41
23619;BME280;18207;32.078;34.818;2022-08-19T13:01:11;99993.00;;;36.21;43.46
23619;BME280;18207;32.078;34.818;2022-08-19T13:03:45;99991.38;;;36.20;42.96
23619;BME280;18207;32.078;34.818;2022-08-19T13:06:17;99994.38;;;36.16;43.35
23619;BME280;18207;32.078;34.818;2022-08-19T13:08:48;99994.03;;;36.14;43.22
23619;BME280;18207;32.078;34.818;2022-08-19T13:11:25;99994.16;;;36.11;43.30
23619;BME280;18207;32.078;34.818;2022-08-19T13:14:02;99989.81;;;36.06;43.66
23619;BME280;18207;32.078;34.818;2022-08-19T13:16:36;99991.19;;;36.02;43.67
23619;BME280;18207;32.078;34.818;2022-08-19T13:19:06;99994.53;;;36.00;43.47
23619;BME280;18207;32.078;34.818;2022-08-19T13:21:37;99992.09;;;35.99;43.31